LIBD METAR and TAF | Updated Today

LIBD METAR

Bari Karol Wojtyła Airport

Observation time: 21 min. ago

LIBD 060820Z 23003KT 9999 FEW040 08/08 Q1001

Need help? Read our tutorial on how to read METARs or read the parsed version below.

Bari Karol Wojtyła Airport (LIBD) METAR

  • Weather conditions on Mon, 06 Dec 2021 08:20:00 +0000 (21 min. ago):
  • Present conditions: Dry
  • Clouds: A few at 1219 meters
  • Visibility: Greater than 10 km
  • Wind: 230 degrees at 3 knots
  • Temperature: 8 celsius
  • Dew point: 8 celsius
  • Pressure: 1001 millibars
  • Remarks: None


Useful to know...

LIBD TAF

Bari Karol Wojtyła Airport

TAF LIBD 060500Z 0606/0706 VRB05KT 9999 BKN030 TEMPO 0608/0618 4000 TSRA BECMG 0608/0610 33015KT
Observation time: 3:41 hr. ago
Need help? Read our tutorial on how to read TAFs or read the parsed version below.

Parsed version of TAF for Bari Karol Wojtyła Airport (LIBD)

  • From 06 December at 06:00 UTC, to day 07 of the month at 06:00 UTC
  • Clouds: Broken sky at 914 meters
  • Visibility: Greater than 10 km
  • Wind: Variable at 5
  • Expected to arise temporarily, from 06 December at 08:00 UTC, to day 06 of the month at 18:00 UTC
  • Visibility: 4000 meters
  • Other: Thunderstorms rain
  • Expected to arise soon, from 06 December at 08:00 UTC, to day 06 of the month at 10:00 UTC
  • Wind: 330 degrees at 15

Airports near LIBD